M/T Havva Ana — V7RE3 — position and weather

sailwx.info

Track history (hours):
 
Tides and Currents Weather Stations Pressure Air Temp Water Temp Dewpoint Dewpoint Depression Visibility Wind Speed Wind Dir Waves Ship Positions

M/T Havva Ana

Last reported at 2016-Feb-10 23:22 UTC. Time now 2016-Feb-14 23:03 UTC.
Position N 36°37' E 013°40'.

Length 124 m; draft 5.5 m.

Type: Ship (hazmat cat B). MMSI: 538003488.

Date/timePositionNaut miles runAvg speedWind from/ knotsBaromVisibWave heightAir tempDewpointWater temp
2016-Feb-10 23:22N 36°37' E 013°40'20 9.5
2016-Feb-10 21:18N 36°31' E 014°03'7 9.5
2016-Feb-10 20:33N 36°28' E 014°11'9 9.2
2016-Feb-10 19:33N 36°26' E 014°22'9 9.3
2016-Feb-10 18:32N 36°24' E 014°33'44310.5
2016-Feb-09 00:33N 37°30' E 023°41'1212.5
2016-Feb-08 23:33N 37°43' E 023°41'1111.4
2016-Feb-08 22:33N 37°50' E 023°29'1512.5
2016-Feb-08 21:20N 37°53' E 023°10'  
2016-Feb-02 22:30N 37°53' E 023°09'1010.9
2016-Feb-02 21:34N 37°51' E 023°22'1312.9
2016-Feb-02 20:33N 37°50' E 023°38'3213.0
2016-Feb-02 18:06N 37°19' E 023°46'813.5
2016-Feb-02 17:31N 37°11' E 023°46'8111.5
2016-Feb-02 10:28N 36°08' E 024°49'  
Track history (hours):
 
Tides and Currents Weather Stations Pressure Air Temp Water Temp Dewpoint Dewpoint Depression Visibility Wind Speed Wind Dir Waves Ship Positions

M/T Havva Ana

Last reported at 2016-Feb-10 23:22 UTC. Time now 2016-Feb-14 23:03 UTC.
Position N 36°37' E 013°40'.

Length 124 m; draft 5.5 m.

Type: Ship (hazmat cat B). MMSI: 538003488.

Date/timePositionNaut miles runAvg speedWind from/ knotsBaromVisibWave heightAir tempDewpointWater temp
2016-Feb-10 23:22N 36°37' E 013°40'20 9.5
2016-Feb-10 21:18N 36°31' E 014°03'7 9.5
2016-Feb-10 20:33N 36°28' E 014°11'9 9.2
2016-Feb-10 19:33N 36°26' E 014°22'9 9.3
2016-Feb-10 18:32N 36°24' E 014°33'44310.5
2016-Feb-09 00:33N 37°30' E 023°41'1212.5
2016-Feb-08 23:33N 37°43' E 023°41'1111.4
2016-Feb-08 22:33N 37°50' E 023°29'1512.5
2016-Feb-08 21:20N 37°53' E 023°10'  
2016-Feb-02 22:30N 37°53' E 023°09'1010.9
2016-Feb-02 21:34N 37°51' E 023°22'1312.9
2016-Feb-02 20:33N 37°50' E 023°38'3213.0
2016-Feb-02 18:06N 37°19' E 023°46'813.5
2016-Feb-02 17:31N 37°11' E 023°46'8111.5
2016-Feb-02 10:28N 36°08' E 024°49'  

Dump ship's entire track history